sensor_id;sensor_type;location;lat;lon;timestamp;pressure;altitude;pressure_sealevel;temperature;humidity
56414;BME280;42318;48.452;19.526;2023-08-06T00:04:17;96929.31;;;23.79;66.35
56414;BME280;42318;48.452;19.526;2023-08-06T00:09:18;96933.19;;;23.78;66.05
56414;BME280;42318;48.452;19.526;2023-08-06T00:14:18;96926.91;;;23.77;65.84
56414;BME280;42318;48.452;19.526;2023-08-06T00:19:19;96912.09;;;23.78;65.75
56414;BME280;42318;48.452;19.526;2023-08-06T00:24:20;96915.16;;;23.77;65.50
56414;BME280;42318;48.452;19.526;2023-08-06T00:29:21;96911.31;;;23.78;65.64
56414;BME280;42318;48.452;19.526;2023-08-06T00:34:21;96910.50;;;23.77;65.84
56414;BME280;42318;48.452;19.526;2023-08-06T00:39:22;96901.00;;;23.75;65.93
56414;BME280;42318;48.452;19.526;2023-08-06T00:44:24;96899.56;;;23.77;66.08
56414;BME280;42318;48.452;19.526;2023-08-06T00:49:24;96919.34;;;23.74;65.85
56414;BME280;42318;48.452;19.526;2023-08-06T00:54:27;96937.03;;;23.77;65.41
56414;BME280;42318;48.452;19.526;2023-08-06T00:59:28;96939.59;;;23.73;65.38
56414;BME280;42318;48.452;19.526;2023-08-06T01:04:30;96944.28;;;23.73;65.37
56414;BME280;42318;48.452;19.526;2023-08-06T01:10:29;96946.38;;;23.76;65.34
56414;BME280;42318;48.452;19.526;2023-08-06T01:15:43;96940.41;;;23.74;65.79
56414;BME280;42318;48.452;19.526;2023-08-06T01:20:45;96917.72;;;23.73;65.65
56414;BME280;42318;48.452;19.526;2023-08-06T01:31:01;96916.94;;;23.73;65.68
56414;BME280;42318;48.452;19.526;2023-08-06T01:36:04;96880.56;;;23.72;65.46
56414;BME280;42318;48.452;19.526;2023-08-06T01:41:06;96884.44;;;23.71;65.52
56414;BME280;42318;48.452;19.526;2023-08-06T01:46:07;96890.69;;;23.72;65.22
56414;BME280;42318;48.452;19.526;2023-08-06T01:51:08;96868.03;;;23.71;65.41
56414;BME280;42318;48.452;19.526;2023-08-06T01:56:09;96859.00;;;23.71;66.03
56414;BME280;42318;48.452;19.526;2023-08-06T02:01:09;96850.81;;;23.71;65.61
56414;BME280;42318;48.452;19.526;2023-08-06T02:06:10;96818.81;;;23.71;65.45
56414;BME280;42318;48.452;19.526;2023-08-06T02:11:11;96814.47;;;23.70;65.74
56414;BME280;42318;48.452;19.526;2023-08-06T02:16:12;96819.94;;;23.70;65.90
56414;BME280;42318;48.452;19.526;2023-08-06T02:21:12;96818.31;;;23.69;65.69
56414;BME280;42318;48.452;19.526;2023-08-06T02:26:13;96819.13;;;23.70;65.39
56414;BME280;42318;48.452;19.526;2023-08-06T02:31:14;96797.25;;;23.70;65.59
56414;BME280;42318;48.452;19.526;2023-08-06T02:36:15;96817.50;;;23.69;65.62
56414;BME280;42318;48.452;19.526;2023-08-06T02:41:15;96814.78;;;23.69;65.63
56414;BME280;42318;48.452;19.526;2023-08-06T02:46:16;96822.19;;;23.68;65.53
56414;BME280;42318;48.452;19.526;2023-08-06T02:51:17;96822.97;;;23.69;65.42
56414;BME280;42318;48.452;19.526;2023-08-06T02:56:18;96827.16;;;23.66;65.83
56414;BME280;42318;48.452;19.526;2023-08-06T03:01:19;96827.97;;;23.67;65.41
56414;BME280;42318;48.452;19.526;2023-08-06T03:06:19;96825.22;;;23.67;65.37
56414;BME280;42318;48.452;19.526;2023-08-06T03:11:20;96817.03;;;23.67;65.05
56414;BME280;42318;48.452;19.526;2023-08-06T03:16:21;96793.06;;;23.64;65.46
56414;BME280;42318;48.452;19.526;2023-08-06T03:21:22;96801.75;;;23.66;65.65
56414;BME280;42318;48.452;19.526;2023-08-06T03:26:23;96804.47;;;23.66;64.96
56414;BME280;42318;48.452;19.526;2023-08-06T03:31:23;96805.59;;;23.65;65.61
56414;BME280;42318;48.452;19.526;2023-08-06T03:36:24;96795.47;;;23.65;65.51
56414;BME280;42318;48.452;19.526;2023-08-06T03:41:25;96777.28;;;23.61;65.13
56414;BME280;42318;48.452;19.526;2023-08-06T03:46:26;96776.97;;;23.62;64.99
56414;BME280;42318;48.452;19.526;2023-08-06T03:51:26;96772.31;;;23.63;65.21
56414;BME280;42318;48.452;19.526;2023-08-06T03:56:28;96772.31;;;23.63;65.04
56414;BME280;42318;48.452;19.526;2023-08-06T04:01:28;96759.78;;;23.62;64.65
56414;BME280;42318;48.452;19.526;2023-08-06T04:06:29;96755.75;;;23.59;65.08
56414;BME280;42318;48.452;19.526;2023-08-06T04:11:30;96747.22;;;23.61;65.06
56414;BME280;42318;48.452;19.526;2023-08-06T04:16:31;96737.91;;;23.62;64.94
56414;BME280;42318;48.452;19.526;2023-08-06T04:21:31;96725.34;;;23.61;64.85
56414;BME280;42318;48.452;19.526;2023-08-06T04:26:32;96714.41;;;23.61;65.13
56414;BME280;42318;48.452;19.526;2023-08-06T04:31:33;96715.53;;;23.60;65.30
56414;BME280;42318;48.452;19.526;2023-08-06T04:36:34;96715.53;;;23.60;65.00
56414;BME280;42318;48.452;19.526;2023-08-06T04:41:35;96715.53;;;23.60;64.77
56414;BME280;42318;48.452;19.526;2023-08-06T04:46:35;96720.22;;;23.59;65.00
56414;BME280;42318;48.452;19.526;2023-08-06T04:51:36;96710.41;;;23.58;64.97
56414;BME280;42318;48.452;19.526;2023-08-06T04:56:37;96706.53;;;23.59;64.75
56414;BME280;42318;48.452;19.526;2023-08-06T05:01:38;96706.53;;;23.59;64.94
56414;BME280;42318;48.452;19.526;2023-08-06T05:06:38;96706.84;;;23.58;65.04
56414;BME280;42318;48.452;19.526;2023-08-06T05:11:39;96689.97;;;23.56;64.91
56414;BME280;42318;48.452;19.526;2023-08-06T05:16:40;96698.66;;;23.58;64.86
56414;BME280;42318;48.452;19.526;2023-08-06T05:21:41;96695.13;;;23.57;64.72
56414;BME280;42318;48.452;19.526;2023-08-06T05:26:41;96691.59;;;23.57;64.91
56414;BME280;42318;48.452;19.526;2023-08-06T05:31:43;96684.50;;;23.56;64.88
56414;BME280;42318;48.452;19.526;2023-08-06T05:36:43;96680.66;;;23.57;64.65
56414;BME280;42318;48.452;19.526;2023-08-06T05:41:44;96678.84;;;23.52;64.77
56414;BME280;42318;48.452;19.526;2023-08-06T05:46:45;96666.00;;;23.53;65.01
56414;BME280;42318;48.452;19.526;2023-08-06T05:51:46;96672.78;;;23.55;64.67
56414;BME280;42318;48.452;19.526;2023-08-06T05:56:46;96678.25;;;23.55;64.67
56414;BME280;42318;48.452;19.526;2023-08-06T06:01:47;96678.25;;;23.55;64.61
56414;BME280;42318;48.452;19.526;2023-08-06T06:06:48;96685.59;;;23.55;64.83
56414;BME280;42318;48.452;19.526;2023-08-06T06:11:49;96675.78;;;23.54;64.52
56414;BME280;42318;48.452;19.526;2023-08-06T06:16:50;96667.91;;;23.52;64.92
56414;BME280;42318;48.452;19.526;2023-08-06T06:21:52;96663.56;;;23.51;64.84
56414;BME280;42318;48.452;19.526;2023-08-06T06:26:53;96667.13;;;23.52;65.05
56414;BME280;42318;48.452;19.526;2023-08-06T06:31:54;96660.03;;;23.50;65.56
56414;BME280;42318;48.452;19.526;2023-08-06T06:36:55;96656.81;;;23.48;66.20
56414;BME280;42318;48.452;19.526;2023-08-06T06:41:56;96660.72;;;23.56;67.23
56414;BME280;42318;48.452;19.526;2023-08-06T06:46:57;96662.31;;;23.57;67.51
56414;BME280;42318;48.452;19.526;2023-08-06T06:51:57;96652.66;;;23.60;66.50
56414;BME280;42318;48.452;19.526;2023-08-06T06:56:58;96661.34;;;23.62;66.95
56414;BME280;42318;48.452;19.526;2023-08-06T07:01:59;96648.31;;;23.67;67.13
56414;BME280;42318;48.452;19.526;2023-08-06T07:07:00;96641.88;;;23.72;67.00
56414;BME280;42318;48.452;19.526;2023-08-06T07:12:00;96632.88;;;23.71;66.72
56414;BME280;42318;48.452;19.526;2023-08-06T07:17:02;96620.16;;;23.67;67.00
56414;BME280;42318;48.452;19.526;2023-08-06T07:22:03;96627.25;;;23.68;66.85
56414;BME280;42318;48.452;19.526;2023-08-06T07:27:04;96620.16;;;23.67;67.10
56414;BME280;42318;48.452;19.526;2023-08-06T07:32:06;96619.03;;;23.68;66.89
56414;BME280;42318;48.452;19.526;2023-08-06T07:37:07;96619.38;;;23.66;66.58
56414;BME280;42318;48.452;19.526;2023-08-06T07:42:10;96609.56;;;23.65;67.05
56414;BME280;42318;48.452;19.526;2023-08-06T07:47:11;96612.78;;;23.67;66.91
56414;BME280;42318;48.452;19.526;2023-08-06T07:52:12;96614.38;;;23.68;67.08
56414;BME280;42318;48.452;19.526;2023-08-06T07:57:13;96611.97;;;23.67;66.98
56414;BME280;42318;48.452;19.526;2023-08-06T08:02:15;96597.34;;;23.63;66.88
56414;BME280;42318;48.452;19.526;2023-08-06T08:07:16;96604.09;;;23.65;67.13
56414;BME280;42318;48.452;19.526;2023-08-06T08:12:17;96604.88;;;23.66;66.97
56414;BME280;42318;48.452;19.526;2023-08-06T08:17:18;96600.53;;;23.65;67.00
56414;BME280;42318;48.452;19.526;2023-08-06T08:22:19;96604.88;;;23.66;66.78
56414;BME280;42318;48.452;19.526;2023-08-06T08:27:19;96597.34;;;23.63;66.80
56414;BME280;42318;48.452;19.526;2023-08-06T08:32:20;96588.97;;;23.59;66.81
56414;BME280;42318;48.452;19.526;2023-08-06T08:37:21;96588.19;;;23.59;66.93
56414;BME280;42318;48.452;19.526;2023-08-06T08:42:22;96598.00;;;23.60;66.78
56414;BME280;42318;48.452;19.526;2023-08-06T08:47:24;96596.84;;;23.61;66.73
56414;BME280;42318;48.452;19.526;2023-08-06T08:52:26;96586.25;;;23.59;66.48
56414;BME280;42318;48.452;19.526;2023-08-06T08:57:30;96586.56;;;23.58;66.69
56414;BME280;42318;48.452;19.526;2023-08-06T09:02:33;96587.06;;;23.60;66.38
56414;BME280;42318;48.452;19.526;2023-08-06T09:07:42;96591.38;;;23.61;66.46
56414;BME280;42318;48.452;19.526;2023-08-06T09:12:45;96592.53;;;23.60;66.28
56414;BME280;42318;48.452;19.526;2023-08-06T09:17:46;96599.59;;;23.61;66.88
56414;BME280;42318;48.452;19.526;2023-08-06T09:22:47;96600.25;;;23.58;64.89
56414;BME280;42318;48.452;19.526;2023-08-06T09:27:50;96603.59;;;23.55;65.97
56414;BME280;42318;48.452;19.526;2023-08-06T09:32:51;96590.91;;;23.59;66.93
56414;BME280;42318;48.452;19.526;2023-08-06T09:37:52;96592.53;;;23.60;66.68
56414;BME280;42318;48.452;19.526;2023-08-06T09:42:53;96590.25;;;23.62;67.08
56414;BME280;42318;48.452;19.526;2023-08-06T09:47:57;96589.63;;;23.56;67.14
56414;BME280;42318;48.452;19.526;2023-08-06T09:53:03;96603.44;;;23.60;67.25
56414;BME280;42318;48.452;19.526;2023-08-06T09:58:06;96600.25;;;23.58;67.34
56414;BME280;42318;48.452;19.526;2023-08-06T10:03:07;96611.97;;;23.58;67.17
56414;BME280;42318;48.452;19.526;2023-08-06T10:08:10;96616.66;;;23.58;67.26
56414;BME280;42318;48.452;19.526;2023-08-06T10:13:12;96612.47;;;23.60;67.01
56414;BME280;42318;48.452;19.526;2023-08-06T10:18:14;96606.66;;;23.62;66.62
56414;BME280;42318;48.452;19.526;2023-08-06T10:23:32;96618.09;;;23.64;66.36
56414;BME280;42318;48.452;19.526;2023-08-06T10:28:35;96604.25;;;23.60;66.20
56414;BME280;42318;48.452;19.526;2023-08-06T10:33:44;96602.00;;;23.62;66.32
56414;BME280;42318;48.452;19.526;2023-08-06T10:38:49;96591.06;;;23.62;66.16
56414;BME280;42318;48.452;19.526;2023-08-06T10:43:50;96592.19;;;23.61;66.12
56414;BME280;42318;48.452;19.526;2023-08-06T10:48:52;96609.88;;;23.64;65.84
56414;BME280;42318;48.452;19.526;2023-08-06T10:53:53;96611.47;;;23.65;65.88
56414;BME280;42318;48.452;19.526;2023-08-06T10:58:55;96611.00;;;23.63;66.03
56414;BME280;42318;48.452;19.526;2023-08-06T11:04:02;96615.66;;;23.62;65.77
56414;BME280;42318;48.452;19.526;2023-08-06T11:09:03;96615.53;;;23.59;65.01
56414;BME280;42318;48.452;19.526;2023-08-06T11:14:04;96623.06;;;23.62;65.06
56414;BME280;42318;48.452;19.526;2023-08-06T11:19:07;96623.06;;;23.62;65.77
56414;BME280;42318;48.452;19.526;2023-08-06T11:24:10;96625.47;;;23.63;65.48
56414;BME280;42318;48.452;19.526;2023-08-06T11:29:11;96629.50;;;23.66;65.64
56414;BME280;42318;48.452;19.526;2023-08-06T11:34:12;96620.16;;;23.67;65.82
56414;BME280;42318;48.452;19.526;2023-08-06T11:39:12;96640.09;;;23.67;65.50
56414;BME280;42318;48.452;19.526;2023-08-06T11:44:14;96633.50;;;23.68;65.42
56414;BME280;42318;48.452;19.526;2023-08-06T11:49:15;96651.84;;;23.68;65.42
56414;BME280;42318;48.452;19.526;2023-08-06T11:54:16;96644.78;;;23.67;65.03
56414;BME280;42318;48.452;19.526;2023-08-06T11:59:16;96645.09;;;23.65;65.28
56414;BME280;42318;48.452;19.526;2023-08-06T12:04:20;96648.78;;;23.69;65.50
56414;BME280;42318;48.452;19.526;2023-08-06T12:09:21;96656.19;;;23.69;65.47
56414;BME280;42318;48.452;19.526;2023-08-06T12:14:23;96664.41;;;23.69;65.49
56414;BME280;42318;48.452;19.526;2023-08-06T12:19:24;96667.94;;;23.69;65.88
56414;BME280;42318;48.452;19.526;2023-08-06T12:24:25;96667.28;;;23.72;66.08
56414;BME280;42318;48.452;19.526;2023-08-06T12:29:26;96669.69;;;23.74;66.02
56414;BME280;42318;48.452;19.526;2023-08-06T12:34:27;96668.09;;;23.73;66.06
56414;BME280;42318;48.452;19.526;2023-08-06T12:39:28;96655.06;;;23.70;65.91
56414;BME280;42318;48.452;19.526;2023-08-06T12:44:29;96665.69;;;23.71;66.05
56414;BME280;42318;48.452;19.526;2023-08-06T12:49:30;96658.91;;;23.69;66.53
56414;BME280;42318;48.452;19.526;2023-08-06T12:54:33;96656.66;;;23.71;66.49
56414;BME280;42318;48.452;19.526;2023-08-06T12:59:37;96662.13;;;23.71;66.54
56414;BME280;42318;48.452;19.526;2023-08-06T13:04:40;96662.13;;;23.71;66.49
56414;BME280;42318;48.452;19.526;2023-08-06T13:09:41;96659.06;;;23.72;66.64
56414;BME280;42318;48.452;19.526;2023-08-06T13:14:42;96661.50;;;23.74;66.50
56414;BME280;42318;48.452;19.526;2023-08-06T13:19:43;96660.38;;;23.75;66.57
56414;BME280;42318;48.452;19.526;2023-08-06T13:24:44;96664.69;;;23.76;66.33
56414;BME280;42318;48.452;19.526;2023-08-06T13:29:44;96677.56;;;23.75;66.33
56414;BME280;42318;48.452;19.526;2023-08-06T13:34:46;96683.84;;;23.76;66.42
56414;BME280;42318;48.452;19.526;2023-08-06T13:39:47;96682.72;;;23.77;66.88
56414;BME280;42318;48.452;19.526;2023-08-06T13:44:48;96694.78;;;23.76;66.49
56414;BME280;42318;48.452;19.526;2023-08-06T13:49:49;96703.78;;;23.76;66.68
56414;BME280;42318;48.452;19.526;2023-08-06T13:54:49;96698.97;;;23.73;66.43
56414;BME280;42318;48.452;19.526;2023-08-06T13:59:50;96699.78;;;23.74;66.52
56414;BME280;42318;48.452;19.526;2023-08-06T14:04:55;96724.88;;;23.76;66.26
56414;BME280;42318;48.452;19.526;2023-08-06T14:09:56;96727.59;;;23.76;66.55
56414;BME280;42318;48.452;19.526;2023-08-06T14:14:58;96724.38;;;23.74;66.89
56414;BME280;42318;48.452;19.526;2023-08-06T14:19:59;96737.25;;;23.73;66.71
56414;BME280;42318;48.452;19.526;2023-08-06T14:25:01;96744.66;;;23.73;66.61
56414;BME280;42318;48.452;19.526;2023-08-06T14:30:02;96745.44;;;23.73;66.54
56414;BME280;42318;48.452;19.526;2023-08-06T14:35:04;96748.84;;;23.70;65.62
56414;BME280;42318;48.452;19.526;2023-08-06T14:40:05;96751.88;;;23.69;65.89
56414;BME280;42318;48.452;19.526;2023-08-06T14:45:06;96771.84;;;23.69;65.85
56414;BME280;42318;48.452;19.526;2023-08-06T14:50:07;96774.88;;;23.68;65.04
56414;BME280;42318;48.452;19.526;2023-08-06T14:55:10;96790.81;;;23.66;64.84
56414;BME280;42318;48.452;19.526;2023-08-06T15:00:11;96801.09;;;23.60;59.50
56414;BME280;42318;48.452;19.526;2023-08-06T15:05:12;96798.16;;;23.48;63.28
56414;BME280;42318;48.452;19.526;2023-08-06T15:10:14;96803.31;;;23.49;63.10
56414;BME280;42318;48.452;19.526;2023-08-06T15:15:15;96804.44;;;23.48;62.08
56414;BME280;42318;48.452;19.526;2023-08-06T15:20:16;96805.56;;;23.47;62.78
56414;BME280;42318;48.452;19.526;2023-08-06T15:25:17;96810.22;;;23.47;61.98
56414;BME280;42318;48.452;19.526;2023-08-06T15:30:17;96813.09;;;23.42;62.06
56414;BME280;42318;48.452;19.526;2023-08-06T15:35:18;96801.66;;;23.40;61.55
56414;BME280;42318;48.452;19.526;2023-08-06T15:40:19;96809.84;;;23.40;62.57
56414;BME280;42318;48.452;19.526;2023-08-06T15:45:20;96819.16;;;23.39;62.93
56414;BME280;42318;48.452;19.526;2023-08-06T15:50:21;96828.97;;;23.40;63.12
56414;BME280;42318;48.452;19.526;2023-08-06T15:55:21;96834.28;;;23.36;62.68
56414;BME280;42318;48.452;19.526;2023-08-06T16:00:22;96845.22;;;23.36;62.44
56414;BME280;42318;48.452;19.526;2023-08-06T16:05:23;96845.03;;;23.33;62.36
56414;BME280;42318;48.452;19.526;2023-08-06T16:10:24;96833.31;;;23.32;62.56
56414;BME280;42318;48.452;19.526;2023-08-06T16:15:25;96841.00;;;23.30;61.70
56414;BME280;42318;48.452;19.526;2023-08-06T16:20:26;96851.94;;;23.30;62.39
56414;BME280;42318;48.452;19.526;2023-08-06T16:25:26;96861.91;;;23.26;62.35
56414;BME280;42318;48.452;19.526;2023-08-06T16:30:27;96876.84;;;23.29;62.19
56414;BME280;42318;48.452;19.526;2023-08-06T16:35:32;96871.22;;;23.25;62.20
56414;BME280;42318;48.452;19.526;2023-08-06T16:40:33;96878.94;;;23.23;61.02
56414;BME280;42318;48.452;19.526;2023-08-06T16:45:36;96889.84;;;23.23;60.43
56414;BME280;42318;48.452;19.526;2023-08-06T16:50:38;96894.03;;;23.21;60.41
56414;BME280;42318;48.452;19.526;2023-08-06T16:55:39;96887.75;;;23.20;62.41
56414;BME280;42318;48.452;19.526;2023-08-06T17:00:40;96868.63;;;23.20;62.59
56414;BME280;42318;48.452;19.526;2023-08-06T17:05:41;96876.50;;;23.22;63.08
56414;BME280;42318;48.452;19.526;2023-08-06T17:10:42;96881.84;;;23.27;63.10
56414;BME280;42318;48.452;19.526;2023-08-06T17:15:43;96880.06;;;23.31;63.57
56414;BME280;42318;48.452;19.526;2023-08-06T17:20:45;96879.59;;;23.29;63.23
56414;BME280;42318;48.452;19.526;2023-08-06T17:25:46;96889.84;;;23.23;63.83
56414;BME280;42318;48.452;19.526;2023-08-06T17:30:48;96886.00;;;23.24;63.82
56414;BME280;42318;48.452;19.526;2023-08-06T17:35:48;96897.75;;;23.25;63.74
56414;BME280;42318;48.452;19.526;2023-08-06T17:40:54;96900.47;;;23.25;64.26
56414;BME280;42318;48.452;19.526;2023-08-06T17:45:55;96903.38;;;23.28;64.41
56414;BME280;42318;48.452;19.526;2023-08-06T17:50:56;96924.13;;;23.29;63.84
56414;BME280;42318;48.452;19.526;2023-08-06T17:55:57;96923.00;;;23.30;64.11
56414;BME280;42318;48.452;19.526;2023-08-06T18:01:01;96935.03;;;23.29;64.03
56414;BME280;42318;48.452;19.526;2023-08-06T18:06:02;96935.69;;;23.26;64.21
56414;BME280;42318;48.452;19.526;2023-08-06T18:11:03;96944.53;;;23.32;64.62
56414;BME280;42318;48.452;19.526;2023-08-06T18:16:04;96938.91;;;23.28;64.75
56414;BME280;42318;48.452;19.526;2023-08-06T18:21:05;96940.19;;;23.31;64.85
56414;BME280;42318;48.452;19.526;2023-08-06T18:26:05;96932.50;;;23.33;65.23
56414;BME280;42318;48.452;19.526;2023-08-06T18:31:06;96950.69;;;23.37;65.58
56414;BME280;42318;48.452;19.526;2023-08-06T18:36:08;96952.28;;;23.38;65.72
56414;BME280;42318;48.452;19.526;2023-08-06T18:41:09;96952.50;;;23.42;65.70
56414;BME280;42318;48.452;19.526;2023-08-06T18:46:10;96943.97;;;23.43;66.28
56414;BME280;42318;48.452;19.526;2023-08-06T18:51:10;96952.34;;;23.47;66.37
56414;BME280;42318;48.452;19.526;2023-08-06T18:56:11;96953.66;;;23.49;66.64
56414;BME280;42318;48.452;19.526;2023-08-06T19:01:12;96953.03;;;23.53;66.67
56414;BME280;42318;48.452;19.526;2023-08-06T19:06:13;96957.06;;;23.55;67.13
56414;BME280;42318;48.452;19.526;2023-08-06T19:11:14;96944.50;;;23.54;66.66
56414;BME280;42318;48.452;19.526;2023-08-06T19:16:15;96957.56;;;23.57;66.85
56414;BME280;42318;48.452;19.526;2023-08-06T19:21:16;96952.22;;;23.52;66.86
56414;BME280;42318;48.452;19.526;2023-08-06T19:26:17;96964.44;;;23.55;67.84
56414;BME280;42318;48.452;19.526;2023-08-06T19:31:18;96952.41;;;23.56;68.09
56414;BME280;42318;48.452;19.526;2023-08-06T19:36:18;96984.69;;;23.54;66.87
56414;BME280;42318;48.452;19.526;2023-08-06T19:41:22;96977.75;;;23.47;65.61
56414;BME280;42318;48.452;19.526;2023-08-06T19:46:22;96975.97;;;23.43;64.59
56414;BME280;42318;48.452;19.526;2023-08-06T19:51:23;96975.28;;;23.37;64.19
56414;BME280;42318;48.452;19.526;2023-08-06T19:56:25;96977.66;;;23.30;64.14
56414;BME280;42318;48.452;19.526;2023-08-06T20:01:29;97000.75;;;23.24;63.64
56414;BME280;42318;48.452;19.526;2023-08-06T20:06:31;97010.41;;;23.22;63.62
56414;BME280;42318;48.452;19.526;2023-08-06T20:11:32;97005.25;;;23.20;63.86
56414;BME280;42318;48.452;19.526;2023-08-06T20:16:33;97012.63;;;23.19;63.64
56414;BME280;42318;48.452;19.526;2023-08-06T20:21:34;97016.78;;;23.17;63.52
56414;BME280;42318;48.452;19.526;2023-08-06T20:26:35;97043.50;;;23.20;63.26
56414;BME280;42318;48.452;19.526;2023-08-06T20:31:36;97040.75;;;23.20;63.31
56414;BME280;42318;48.452;19.526;2023-08-06T20:36:37;97047.84;;;23.21;63.77
56414;BME280;42318;48.452;19.526;2023-08-06T20:41:38;97048.97;;;23.20;63.33
56414;BME280;42318;48.452;19.526;2023-08-06T20:46:39;97062.31;;;23.22;63.37
56414;BME280;42318;48.452;19.526;2023-08-06T20:51:40;97076.09;;;23.16;63.24
56414;BME280;42318;48.452;19.526;2023-08-06T20:56:40;97085.59;;;23.19;63.61
56414;BME280;42318;48.452;19.526;2023-08-06T21:01:41;97090.88;;;23.15;63.28
56414;BME280;42318;48.452;19.526;2023-08-06T21:06:42;97098.28;;;23.15;62.95
56414;BME280;42318;48.452;19.526;2023-08-06T21:11:43;97080.88;;;23.11;62.89
56414;BME280;42318;48.452;19.526;2023-08-06T21:16:43;97086.22;;;23.16;62.84
56414;BME280;42318;48.452;19.526;2023-08-06T21:21:44;97083.00;;;23.14;62.21
56414;BME280;42318;48.452;19.526;2023-08-06T21:26:46;97076.22;;;23.11;62.33
56414;BME280;42318;48.452;19.526;2023-08-06T21:31:47;97077.66;;;23.09;62.08
56414;BME280;42318;48.452;19.526;2023-08-06T21:36:48;97079.09;;;23.06;62.16
56414;BME280;42318;48.452;19.526;2023-08-06T21:41:51;97068.47;;;23.05;62.08
56414;BME280;42318;48.452;19.526;2023-08-06T21:46:51;97048.34;;;23.01;62.04
56414;BME280;42318;48.452;19.526;2023-08-06T21:51:52;97041.75;;;23.02;62.31
56414;BME280;42318;48.452;19.526;2023-08-06T21:56:53;97021.63;;;22.98;61.19
56414;BME280;42318;48.452;19.526;2023-08-06T22:01:54;97033.06;;;23.00;61.64
56414;BME280;42318;48.452;19.526;2023-08-06T22:06:55;97041.84;;;22.97;62.03
56414;BME280;42318;48.452;19.526;2023-08-06T22:11:55;97062.59;;;22.98;61.44
56414;BME280;42318;48.452;19.526;2023-08-06T22:16:56;97078.97;;;22.98;60.97
56414;BME280;42318;48.452;19.526;2023-08-06T22:21:58;97083.13;;;22.95;61.10
56414;BME280;42318;48.452;19.526;2023-08-06T22:26:59;97089.41;;;22.96;61.45
56414;BME280;42318;48.452;19.526;2023-08-06T22:32:00;97104.19;;;22.95;61.07
56414;BME280;42318;48.452;19.526;2023-08-06T22:37:00;97104.50;;;22.93;61.49
56414;BME280;42318;48.452;19.526;2023-08-06T22:42:01;97107.34;;;22.88;61.00
56414;BME280;42318;48.452;19.526;2023-08-06T22:47:02;97121.50;;;22.90;60.49
56414;BME280;42318;48.452;19.526;2023-08-06T22:52:04;97125.03;;;22.91;61.03
56414;BME280;42318;48.452;19.526;2023-08-06T22:57:06;97138.69;;;22.91;61.09
56414;BME280;42318;48.452;19.526;2023-08-06T23:02:07;97139.81;;;22.90;61.44
56414;BME280;42318;48.452;19.526;2023-08-06T23:07:08;97129.50;;;22.86;60.73
56414;BME280;42318;48.452;19.526;2023-08-06T23:12:09;97142.03;;;22.87;60.85
56414;BME280;42318;48.452;19.526;2023-08-06T23:17:10;97149.41;;;22.87;60.78
56414;BME280;42318;48.452;19.526;2023-08-06T23:22:11;97149.72;;;22.85;60.76
56414;BME280;42318;48.452;19.526;2023-08-06T23:27:11;97161.75;;;22.84;61.10
56414;BME280;42318;48.452;19.526;2023-08-06T23:32:12;97167.53;;;22.83;60.94
56414;BME280;42318;48.452;19.526;2023-08-06T23:37:13;97165.13;;;22.81;60.81
56414;BME280;42318;48.452;19.526;2023-08-06T23:42:14;97191.00;;;22.84;60.86
56414;BME280;42318;48.452;19.526;2023-08-06T23:47:15;97173.81;;;22.83;60.42
56414;BME280;42318;48.452;19.526;2023-08-06T23:52:15;97177.97;;;22.81;60.38
56414;BME280;42318;48.452;19.526;2023-08-06T23:57:16;97198.69;;;22.82;60.60
